Time;durP1;ratioP1;P1;durP2;ratioP2;P2;SDS_P1;SDS_P2;PMS_P1;PMS_P2;Temp;Humidity;BMP_temperature;BMP_pressure;BME280_temperature;BME280_humidity;BME280_pressure;Samples;Min_cycle;Max_cycle;Signal;HPM_P1;HPM_P2
2022/02/19 00:01:48;;;;;;;;;;;7.30;75.00;;;;;;5046320;27;83797;-44
2022/02/19 00:04:14;;;;;;;;;;;7.30;75.10;;;;;;5049347;27;84430;-45
2022/02/19 00:06:40;;;;;;;;;;;7.20;74.90;;;;;;5046774;27;84038;-44
2022/02/19 00:09:06;;;;;;;;;;;7.20;75.00;;;;;;5047055;27;83387;-44
2022/02/19 00:11:31;;;;;;;;;;;7.20;75.20;;;;;;5046690;27;82084;-44
2022/02/19 00:13:57;;;;;;;;;;;7.20;75.20;;;;;;5046592;28;83829;-44
2022/02/19 00:16:22;;;;;;;;;;;7.20;75.20;;;;;;5045734;27;85588;-44
2022/02/19 00:18:48;;;;;;;;;;;7.20;75.20;;;;;;5046664;27;82007;-45
2022/02/19 00:21:14;;;;;;;;;;;7.20;75.10;;;;;;5046693;27;83866;-44
2022/02/19 00:23:40;;;;;;;;;;;7.20;75.00;;;;;;5046533;27;84363;-45
2022/02/19 00:26:06;;;;;;;;;;;7.20;75.10;;;;;;5051995;27;81963;-46
2022/02/19 00:28:31;;;;;;;;;;;7.20;75.10;;;;;;5050086;27;84364;-45
2022/02/19 00:30:57;;;;;;;;;;;7.10;75.00;;;;;;5050020;27;82172;-44
2022/02/19 00:33:24;;;;;;;;;;;7.10;75.00;;;;;;5050330;27;83853;-44
2022/02/19 00:35:49;;;;;;;;;;;7.10;75.00;;;;;;5049911;28;84636;-45
2022/02/19 00:38:17;;;;;;;;;;;7.10;75.10;;;;;;5049920;27;82067;-45
2022/02/19 00:40:46;;;;;;;;;;;7.10;75.00;;;;;;5049448;27;84296;-44
2022/02/19 00:43:11;;;;;;;;;;;7.10;75.60;;;;;;5049699;27;84387;-44
2022/02/19 00:45:37;;;;;;;;;;;7.00;75.10;;;;;;5049805;27;82037;-44
2022/02/19 00:48:03;;;;;;;;;;;7.00;75.00;;;;;;5052282;27;83993;-44
2022/02/19 00:50:28;;;;;;;;;;;7.00;74.90;;;;;;5049809;27;81970;-44
2022/02/19 00:52:56;;;;;;;;;;;7.00;74.90;;;;;;5049801;27;84007;-45
2022/02/19 00:55:22;;;;;;;;;;;7.00;75.00;;;;;;5046112;27;89533;-45
2022/02/19 00:57:48;;;;;;;;;;;6.90;74.80;;;;;;5046761;27;86423;-44
2022/02/19 01:00:14;;;;;;;;;;;6.90;75.00;;;;;;5046583;28;86834;-45
2022/02/19 01:02:39;;;;;;;;;;;6.90;74.90;;;;;;5045505;27;89332;-45
2022/02/19 01:05:05;;;;;;;;;;;6.90;74.90;;;;;;5045513;27;88004;-44
2022/02/19 01:07:31;;;;;;;;;;;6.90;75.10;;;;;;5045984;27;90652;-44
2022/02/19 01:09:56;;;;;;;;;;;6.90;74.90;;;;;;5048696;27;89589;-44
2022/02/19 01:12:22;;;;;;;;;;;6.90;74.90;;;;;;5046123;28;88835;-44
2022/02/19 01:14:47;;;;;;;;;;;6.90;75.10;;;;;;5045541;27;89694;-45
2022/02/19 01:17:13;;;;;;;;;;;6.80;75.00;;;;;;5045963;27;87345;-45
2022/02/19 01:19:38;;;;;;;;;;;6.90;75.50;;;;;;5046213;27;89081;-44
2022/02/19 01:22:06;;;;;;;;;;;6.90;75.00;;;;;;5046011;27;88685;-44
2022/02/19 01:24:31;;;;;;;;;;;6.90;74.80;;;;;;5045921;27;86824;-45
2022/02/19 01:26:57;;;;;;;;;;;6.90;74.90;;;;;;5045829;27;88871;-44
2022/02/19 01:29:22;;;;;;;;;;;6.90;74.80;;;;;;5044725;27;90649;-44
2022/02/19 01:31:48;;;;;;;;;;;6.80;74.70;;;;;;5048579;28;86872;-43
2022/02/19 01:34:14;;;;;;;;;;;6.80;74.90;;;;;;5045301;27;89162;-44
2022/02/19 01:36:39;;;;;;;;;;;6.80;74.80;;;;;;5044744;27;87129;-44
2022/02/19 01:39:05;;;;;;;;;;;6.80;74.80;;;;;;5045723;27;88756;-44
2022/02/19 01:41:30;;;;;;;;;;;6.80;74.80;;;;;;5045261;27;89671;-44
2022/02/19 01:43:56;;;;;;;;;;;6.80;74.70;;;;;;5045563;27;87156;-43
2022/02/19 01:46:21;;;;;;;;;;;6.80;74.80;;;;;;5045895;27;87782;-44
2022/02/19 01:48:47;;;;;;;;;;;6.80;74.80;;;;;;5045345;27;89675;-44
2022/02/19 01:51:12;;;;;;;;;;;6.80;74.90;;;;;;5045511;27;87121;-44
2022/02/19 01:53:38;;;;;;;;;;;6.70;74.80;;;;;;5047175;28;88682;-43
2022/02/19 01:56:04;;;;;;;;;;;6.70;74.80;;;;;;5045575;27;87161;-43
2022/02/19 01:58:29;;;;;;;;;;;6.70;74.80;;;;;;5045389;27;88876;-44
2022/02/19 02:00:55;;;;;;;;;;;6.70;75.00;;;;;;5044532;27;90021;-44
2022/02/19 02:03:20;;;;;;;;;;;6.70;75.00;;;;;;5045049;27;87149;-44
2022/02/19 02:05:46;;;;;;;;;;;6.70;74.90;;;;;;5045200;27;88603;-44
2022/02/19 02:08:13;;;;;;;;;;;6.70;74.90;;;;;;5044931;27;89817;-44
2022/02/19 02:10:39;;;;;;;;;;;6.70;74.90;;;;;;5045720;28;86369;-44
2022/02/19 02:13:04;;;;;;;;;;;6.60;74.90;;;;;;5047743;27;88274;-44
2022/02/19 02:15:31;;;;;;;;;;;6.60;75.10;;;;;;5045017;27;87134;-44
2022/02/19 02:17:57;;;;;;;;;;;6.60;75.60;;;;;;5044333;27;88966;-44
2022/02/19 02:20:23;;;;;;;;;;;6.60;75.10;;;;;;5044785;27;89652;-44
2022/02/19 02:22:49;;;;;;;;;;;6.60;75.10;;;;;;5043676;28;87077;-44
2022/02/19 02:25:15;;;;;;;;;;;6.60;75.10;;;;;;5044882;27;88743;-44
2022/02/19 02:27:40;;;;;;;;;;;6.60;75.10;;;;;;5044461;27;89137;-44
2022/02/19 02:30:06;;;;;;;;;;;6.60;75.10;;;;;;5044688;27;87177;-44
2022/02/19 02:32:32;;;;;;;;;;;6.50;75.10;;;;;;5044823;27;88886;-44
2022/02/19 02:34:57;;;;;;;;;;;6.50;75.10;;;;;;5047864;27;89058;-43
2022/02/19 02:37:24;;;;;;;;;;;6.50;75.00;;;;;;5044560;27;88406;-44
2022/02/19 02:39:50;;;;;;;;;;;6.50;75.00;;;;;;5044373;27;89789;-43
2022/02/19 02:42:16;;;;;;;;;;;6.50;75.10;;;;;;5044028;27;88091;-44
2022/02/19 02:44:42;;;;;;;;;;;6.50;75.20;;;;;;5044636;27;89675;-44
2022/02/19 02:47:08;;;;;;;;;;;6.50;75.10;;;;;;5044099;28;89413;-44
2022/02/19 02:49:34;;;;;;;;;;;6.40;75.20;;;;;;5044485;27;87099;-44
2022/02/19 02:51:59;;;;;;;;;;;6.40;75.10;;;;;;5044587;27;88720;-44
2022/02/19 02:54:25;;;;;;;;;;;6.40;75.10;;;;;;5044212;28;88839;-43
2022/02/19 02:56:50;;;;;;;;;;;6.40;75.00;;;;;;5047325;28;87107;-44
2022/02/19 02:59:16;;;;;;;;;;;6.40;75.10;;;;;;5044637;27;89009;-44
2022/02/19 03:01:41;;;;;;;;;;;6.40;75.10;;;;;;5043720;27;87207;-44
2022/02/19 03:04:07;;;;;;;;;;;6.40;75.10;;;;;;5044312;27;89017;-43
2022/02/19 03:06:32;;;;;;;;;;;6.40;75.20;;;;;;5043163;28;89828;-45
2022/02/19 03:08:58;;;;;;;;;;;6.40;75.10;;;;;;5044272;27;87238;-44
2022/02/19 03:11:23;;;;;;;;;;;6.40;75.10;;;;;;5044066;28;88941;-44
2022/02/19 03:13:49;;;;;;;;;;;6.30;75.20;;;;;;5043643;28;89649;-44
2022/02/19 03:16:14;;;;;;;;;;;6.40;75.30;;;;;;5043789;27;87115;-44
2022/02/19 03:18:40;;;;;;;;;;;6.30;75.20;;;;;;5046715;27;89152;-43
2022/02/19 03:21:05;;;;;;;;;;;6.30;75.20;;;;;;5044139;27;87672;-43
2022/02/19 03:23:32;;;;;;;;;;;6.40;75.10;;;;;;5044513;27;88915;-43
2022/02/19 03:25:58;;;;;;;;;;;6.30;75.20;;;;;;5043652;27;89647;-44
2022/02/19 03:28:23;;;;;;;;;;;6.30;75.20;;;;;;5043938;28;87056;-44
2022/02/19 03:30:49;;;;;;;;;;;6.30;75.30;;;;;;5043486;28;87877;-43
2022/02/19 03:33:14;;;;;;;;;;;6.30;75.30;;;;;;5043464;27;89561;-43
2022/02/19 03:35:40;;;;;;;;;;;6.30;75.30;;;;;;5043804;28;87226;-44
2022/02/19 03:38:06;;;;;;;;;;;6.30;75.30;;;;;;5043729;27;87947;-44
2022/02/19 03:40:31;;;;;;;;;;;6.20;75.30;;;;;;5046364;27;88502;-43
2022/02/19 03:42:57;;;;;;;;;;;6.30;75.40;;;;;;5043613;27;89173;-43
2022/02/19 03:45:22;;;;;;;;;;;6.20;75.40;;;;;;5043317;27;89493;-44
2022/02/19 03:47:48;;;;;;;;;;;6.20;75.40;;;;;;5043931;27;86471;-43
2022/02/19 03:50:15;;;;;;;;;;;6.20;75.60;;;;;;5043850;28;88191;-44
2022/02/19 03:52:41;;;;;;;;;;;6.20;75.50;;;;;;5043306;27;89452;-43
2022/02/19 03:55:07;;;;;;;;;;;6.20;75.50;;;;;;5042973;27;88046;-44
2022/02/19 03:57:33;;;;;;;;;;;6.20;75.50;;;;;;5043542;27;88514;-43
2022/02/19 03:59:58;;;;;;;;;;;6.20;75.50;;;;;;5042663;27;89455;-43
2022/02/19 04:02:24;;;;;;;;;;;6.20;75.50;;;;;;5045961;27;87000;-45
2022/02/19 04:04:49;;;;;;;;;;;6.20;75.50;;;;;;5043440;27;88121;-44
2022/02/19 04:07:15;;;;;;;;;;;6.20;75.50;;;;;;5043455;28;86933;-44
2022/02/19 04:09:40;;;;;;;;;;;6.10;75.50;;;;;;5043505;27;88781;-44
2022/02/19 04:12:06;;;;;;;;;;;6.10;75.50;;;;;;5043498;27;88025;-43
2022/02/19 04:14:32;;;;;;;;;;;6.10;75.40;;;;;;5043155;27;87105;-44
2022/02/19 04:16:57;;;;;;;;;;;6.10;75.40;;;;;;5043048;27;89113;-44
2022/02/19 04:19:23;;;;;;;;;;;6.10;75.50;;;;;;5042117;27;90356;-43
2022/02/19 04:21:48;;;;;;;;;;;6.10;75.50;;;;;;5046092;27;87092;-44
2022/02/19 04:24:14;;;;;;;;;;;6.10;75.60;;;;;;5042949;27;89290;-43
2022/02/19 04:26:40;;;;;;;;;;;6.10;75.50;;;;;;5043508;27;87071;-44
2022/02/19 04:29:05;;;;;;;;;;;6.10;75.50;;;;;;5043337;27;88525;-44
2022/02/19 04:31:31;;;;;;;;;;;6.00;75.60;;;;;;5042510;27;89327;-43
2022/02/19 04:33:56;;;;;;;;;;;6.00;75.70;;;;;;5042909;28;87116;-43
2022/02/19 04:36:22;;;;;;;;;;;6.00;75.50;;;;;;5043612;27;89131;-45
2022/02/19 04:38:47;;;;;;;;;;;6.00;75.60;;;;;;5042574;27;89385;-43
2022/02/19 04:41:13;;;;;;;;;;;6.00;75.60;;;;;;5042941;27;87120;-44
2022/02/19 04:43:38;;;;;;;;;;;6.00;75.70;;;;;;5044801;27;89009;-44
2022/02/19 04:46:04;;;;;;;;;;;6.00;75.80;;;;;;5042705;27;87038;-44
2022/02/19 04:48:30;;;;;;;;;;;6.00;75.70;;;;;;5042967;27;88716;-43
2022/02/19 04:50:55;;;;;;;;;;;5.90;75.80;;;;;;5042938;27;89358;-44
2022/02/19 04:53:21;;;;;;;;;;;5.90;75.80;;;;;;5042820;28;87095;-45
2022/02/19 04:55:46;;;;;;;;;;;5.90;75.90;;;;;;5042837;27;88802;-44
2022/02/19 04:58:11;;;;;;;;;;;5.90;75.70;;;;;;5042476;28;89831;-44
2022/02/19 05:00:37;;;;;;;;;;;5.90;75.70;;;;;;5043305;28;86368;-44
2022/02/19 05:03:02;;;;;;;;;;;5.90;75.70;;;;;;5042247;27;88352;-43
2022/02/19 05:05:28;;;;;;;;;;;5.90;75.60;;;;;;5045566;27;89716;-44
2022/02/19 05:07:53;;;;;;;;;;;6.00;75.60;;;;;;5041929;27;87956;-43
2022/02/19 05:10:19;;;;;;;;;;;5.90;75.70;;;;;;5042228;28;89408;-43
2022/02/19 05:12:45;;;;;;;;;;;5.90;75.70;;;;;;5045117;28;87116;-44
2022/02/19 05:15:11;;;;;;;;;;;5.90;75.80;;;;;;5045984;27;89165;-43
2022/02/19 05:17:50;;;;;;;;;;;5.90;75.70;;;;;;5045401;28;89358;-44
2022/02/19 05:20:22;;;;;;;;;;;5.90;75.90;;;;;;5045900;27;87059;-44
2022/02/19 05:22:48;;;;;;;;;;;5.80;75.80;;;;;;5046003;27;87918;-44
2022/02/19 05:25:14;;;;;;;;;;;5.80;75.90;;;;;;5046224;27;89016;-44
2022/02/19 05:27:40;;;;;;;;;;;5.80;76.00;;;;;;5048726;27;86814;-44
2022/02/19 05:30:06;;;;;;;;;;;5.80;75.80;;;;;;5045360;27;89224;-44
2022/02/19 05:32:31;;;;;;;;;;;5.80;75.80;;;;;;5045215;28;88000;-44
2022/02/19 05:34:57;;;;;;;;;;;5.80;75.80;;;;;;5045871;27;90234;-43
2022/02/19 05:37:22;;;;;;;;;;;5.80;75.70;;;;;;5045227;27;89739;-44
2022/02/19 05:39:48;;;;;;;;;;;5.80;75.80;;;;;;5045721;27;87090;-43
2022/02/19 05:42:13;;;;;;;;;;;5.80;75.90;;;;;;5045627;28;89135;-44
2022/02/19 05:44:39;;;;;;;;;;;5.80;75.90;;;;;;5044995;27;89715;-43
2022/02/19 05:47:04;;;;;;;;;;;5.80;75.90;;;;;;5045510;27;86989;-44
2022/02/19 05:49:30;;;;;;;;;;;5.70;75.90;;;;;;5048462;27;88709;-43
2022/02/19 05:51:55;;;;;;;;;;;5.70;75.90;;;;;;5045502;27;87054;-43
2022/02/19 05:54:21;;;;;;;;;;;5.70;76.10;;;;;;5045253;27;88444;-44
2022/02/19 05:56:46;;;;;;;;;;;5.70;76.00;;;;;;5044190;28;90412;-44
2022/02/19 05:59:12;;;;;;;;;;;5.70;76.00;;;;;;5045114;28;86992;-43
2022/02/19 06:01:37;;;;;;;;;;;5.70;76.00;;;;;;5044974;28;88087;-43
2022/02/19 06:04:03;;;;;;;;;;;5.70;76.10;;;;;;5044777;27;89548;-44
2022/02/19 06:06:28;;;;;;;;;;;5.70;76.00;;;;;;5045587;27;86728;-44
2022/02/19 06:08:54;;;;;;;;;;;5.70;75.90;;;;;;5047885;28;88913;-44
2022/02/19 06:11:19;;;;;;;;;;;5.70;76.00;;;;;;5044958;27;87161;-44
2022/02/19 06:13:45;;;;;;;;;;;5.70;76.10;;;;;;5045456;27;88956;-44
2022/02/19 06:16:10;;;;;;;;;;;5.70;76.00;;;;;;5044864;28;88024;-43
2022/02/19 06:18:36;;;;;;;;;;;5.70;76.00;;;;;;5044901;27;87216;-44
2022/02/19 06:21:02;;;;;;;;;;;5.70;76.00;;;;;;5044311;27;89185;-44
2022/02/19 06:23:27;;;;;;;;;;;5.70;75.90;;;;;;5044351;27;89491;-44
2022/02/19 06:25:53;;;;;;;;;;;5.70;75.90;;;;;;5044992;27;87019;-43
2022/02/19 06:28:18;;;;;;;;;;;5.70;75.90;;;;;;5044790;28;88957;-44
2022/02/19 06:30:44;;;;;;;;;;;5.70;75.90;;;;;;5047148;28;89393;-44
2022/02/19 06:33:09;;;;;;;;;;;5.70;75.90;;;;;;5044974;27;87853;-43
2022/02/19 06:35:35;;;;;;;;;;;5.70;75.90;;;;;;5044606;27;88580;-43
2022/02/19 06:38:00;;;;;;;;;;;5.70;75.90;;;;;;5045313;27;86403;-44
2022/02/19 06:40:26;;;;;;;;;;;5.70;75.80;;;;;;5044986;27;88310;-43
2022/02/19 06:42:51;;;;;;;;;;;5.70;75.90;;;;;;5044511;27;88395;-45
2022/02/19 06:45:17;;;;;;;;;;;5.70;75.80;;;;;;5043926;28;88080;-43
2022/02/19 06:47:42;;;;;;;;;;;5.70;75.90;;;;;;5044510;27;90007;-44
2022/02/19 06:50:09;;;;;;;;;;;5.70;75.90;;;;;;5044236;27;89478;-43
2022/02/19 06:52:34;;;;;;;;;;;5.70;75.90;;;;;;5047463;27;87037;-44
2022/02/19 06:55:00;;;;;;;;;;;5.70;75.90;;;;;;5044000;27;89446;-43
2022/02/19 06:57:26;;;;;;;;;;;5.70;75.90;;;;;;5044384;28;87587;-43
2022/02/19 06:59:51;;;;;;;;;;;5.70;75.90;;;;;;5044407;27;88584;-43
2022/02/19 07:02:17;;;;;;;;;;;5.80;75.80;;;;;;5043967;27;89409;-44
2022/02/19 07:04:43;;;;;;;;;;;5.80;75.70;;;;;;5044461;27;86987;-43
2022/02/19 07:07:09;;;;;;;;;;;5.80;75.70;;;;;;5044167;27;88490;-44
2022/02/19 07:09:34;;;;;;;;;;;5.80;75.70;;;;;;5043395;27;90578;-44
2022/02/19 07:12:00;;;;;;;;;;;5.80;75.70;;;;;;5044244;27;87131;-44
2022/02/19 07:14:25;;;;;;;;;;;5.80;75.60;;;;;;5046742;27;88811;-44
2022/02/19 07:16:51;;;;;;;;;;;5.80;75.70;;;;;;5044122;27;87048;-44
2022/02/19 07:19:18;;;;;;;;;;;5.70;75.70;;;;;;5044036;27;88140;-44
2022/02/19 07:21:44;;;;;;;;;;;5.80;75.70;;;;;;5043632;27;89278;-44
2022/02/19 07:24:11;;;;;;;;;;;5.70;75.70;;;;;;5044211;27;86953;-44
2022/02/19 07:26:37;;;;;;;;;;;5.80;75.60;;;;;;5044409;27;88567;-44
2022/02/19 07:29:02;;;;;;;;;;;5.80;75.60;;;;;;5043559;27;89513;-43
2022/02/19 07:31:28;;;;;;;;;;;5.80;75.50;;;;;;5043920;27;87569;-44
2022/02/19 07:33:53;;;;;;;;;;;5.80;75.40;;;;;;5042846;28;88837;-43
2022/02/19 07:36:19;;;;;;;;;;;5.80;75.50;;;;;;5045860;27;89482;-46
2022/02/19 07:38:45;;;;;;;;;;;5.80;76.00;;;;;;5043741;27;88652;-44
2022/02/19 07:41:10;;;;;;;;;;;5.80;75.40;;;;;;5043506;27;89488;-44
2022/02/19 07:43:36;;;;;;;;;;;5.90;75.40;;;;;;5044048;27;87050;-44
2022/02/19 07:46:02;;;;;;;;;;;5.80;75.30;;;;;;5043496;27;88694;-44
2022/02/19 07:48:27;;;;;;;;;;;5.80;75.20;;;;;;5043205;27;89068;-44
2022/02/19 07:59:05;;;;;;;;;;;5.90;75.10;;;;;;5044039;28;88033;-44
2022/02/19 08:01:31;;;;;;;;;;;5.90;75.20;;;;;;5042608;27;88547;-44
2022/02/19 08:03:56;;;;;;;;;;;5.90;75.20;;;;;;5043522;28;87116;-43
2022/02/19 08:06:23;;;;;;;;;;;5.90;75.20;;;;;;5043858;28;87150;-44
2022/02/19 08:08:49;;;;;;;;;;;5.90;75.10;;;;;;5043353;28;87279;-43
2022/02/19 08:11:15;;;;;;;;;;;5.90;75.10;;;;;;5043618;27;87180;-43
2022/02/19 08:13:40;;;;;;;;;;;5.90;75.20;;;;;;5043443;27;88451;-43
2022/02/19 08:16:06;;;;;;;;;;;5.90;75.20;;;;;;5043308;27;87656;-43
2022/02/19 08:18:32;;;;;;;;;;;5.90;75.10;;;;;;5046335;27;86900;-43
2022/02/19 08:20:58;;;;;;;;;;;5.90;75.10;;;;;;5042935;28;89347;-43
2022/02/19 08:23:23;;;;;;;;;;;5.90;75.10;;;;;;5042665;27;88053;-43
2022/02/19 08:25:49;;;;;;;;;;;5.90;75.10;;;;;;5043099;27;89796;-43
2022/02/19 08:28:15;;;;;;;;;;;5.90;75.10;;;;;;5042987;28;87894;-44
2022/02/19 08:30:42;;;;;;;;;;;5.90;75.10;;;;;;5043342;27;87204;-43
2022/02/19 08:33:08;;;;;;;;;;;6.00;75.10;;;;;;5043119;27;88615;-43
2022/02/19 08:35:34;;;;;;;;;;;5.90;75.00;;;;;;5042723;27;89738;-43
2022/02/19 08:38:00;;;;;;;;;;;5.90;75.00;;;;;;5042950;27;87105;-43
2022/02/19 08:40:26;;;;;;;;;;;5.90;75.00;;;;;;5046040;28;87944;-43
2022/02/19 08:42:51;;;;;;;;;;;5.90;75.00;;;;;;5042775;27;87124;-43
2022/02/19 08:45:17;;;;;;;;;;;5.90;74.80;;;;;;5043018;27;89350;-43
2022/02/19 08:47:44;;;;;;;;;;;5.90;74.90;;;;;;5045546;28;90566;-43
2022/02/19 08:50:11;;;;;;;;;;;5.90;74.90;;;;;;5046494;28;87002;-43
2022/02/19 08:52:40;;;;;;;;;;;5.90;74.90;;;;;;5046460;27;88811;-43
2022/02/19 08:55:06;;;;;;;;;;;6.00;74.90;;;;;;5045706;28;89234;-43
2022/02/19 08:57:31;;;;;;;;;;;6.00;74.80;;;;;;5046369;27;86990;-44
2022/02/19 08:59:57;;;;;;;;;;;6.00;74.80;;;;;;5046593;27;89002;-43
2022/02/19 09:02:22;;;;;;;;;;;6.00;74.90;;;;;;5048283;27;89952;-43
2022/02/19 09:04:48;;;;;;;;;;;6.00;74.80;;;;;;5046784;27;89056;-43
2022/02/19 09:07:16;;;;;;;;;;;6.00;74.80;;;;;;5045716;27;89720;-44
2022/02/19 09:09:42;;;;;;;;;;;6.00;74.80;;;;;;5045953;27;87183;-43
2022/02/19 09:12:08;;;;;;;;;;;6.00;74.80;;;;;;5045604;27;89028;-43
2022/02/19 09:14:34;;;;;;;;;;;6.00;74.60;;;;;;5045625;27;90356;-43
2022/02/19 09:16:59;;;;;;;;;;;6.00;74.80;;;;;;5045906;27;87061;-43
2022/02/19 09:19:28;;;;;;;;;;;6.00;74.70;;;;;;5045908;27;88912;-43
2022/02/19 09:21:53;;;;;;;;;;;6.00;74.80;;;;;;5045665;27;89473;-43
2022/02/19 09:24:19;;;;;;;;;;;6.00;74.80;;;;;;5048521;27;87182;-43
2022/02/19 09:26:44;;;;;;;;;;;6.10;74.80;;;;;;5045614;27;89446;-43
2022/02/19 09:29:10;;;;;;;;;;;6.10;74.80;;;;;;5046330;27;86366;-43
2022/02/19 09:31:37;;;;;;;;;;;6.00;74.90;;;;;;5045906;27;88208;-43
2022/02/19 09:34:02;;;;;;;;;;;6.00;75.00;;;;;;5045531;27;89411;-43
2022/02/19 09:36:28;;;;;;;;;;;6.00;75.00;;;;;;5044957;27;87772;-43
2022/02/19 09:38:53;;;;;;;;;;;6.00;74.90;;;;;;5045303;27;89808;-43
2022/02/19 09:41:19;;;;;;;;;;;6.00;74.90;;;;;;5045329;27;89126;-43
2022/02/19 09:43:44;;;;;;;;;;;6.10;74.90;;;;;;5045669;28;87007;-43
2022/02/19 09:46:12;;;;;;;;;;;6.10;75.00;;;;;;5048166;27;88863;-43
2022/02/19 09:48:42;;;;;;;;;;;6.10;75.20;;;;;;5045503;27;87204;-44
2022/02/19 09:51:10;;;;;;;;;;;6.10;75.20;;;;;;5045479;27;88765;-43
2022/02/19 09:53:36;;;;;;;;;;;6.00;75.30;;;;;;5045534;27;88774;-43
2022/02/19 09:56:02;;;;;;;;;;;6.10;75.10;;;;;;5045190;27;87127;-43
2022/02/19 09:58:28;;;;;;;;;;;6.10;75.20;;;;;;5044730;27;88773;-43
2022/02/19 10:00:54;;;;;;;;;;;6.10;75.40;;;;;;5044438;27;90247;-43
2022/02/19 10:03:24;;;;;;;;;;;6.10;75.30;;;;;;5045231;27;86880;-43
2022/02/19 10:05:50;;;;;;;;;;;6.10;75.60;;;;;;5045246;27;88780;-44
2022/02/19 10:08:16;;;;;;;;;;;6.20;75.40;;;;;;5047473;27;88524;-44
2022/02/19 10:10:48;;;;;;;;;;;6.20;75.40;;;;;;5045306;27;88853;-43
2022/02/19 10:13:31;;;;;;;;;;;6.20;75.40;;;;;;5044710;27;89477;-43
2022/02/19 10:15:56;;;;;;;;;;;6.20;75.30;;;;;;5044942;27;86699;-44
2022/02/19 10:18:22;;;;;;;;;;;6.20;75.20;;;;;;5045522;27;88468;-44
2022/02/19 10:21:09;;;;;;;;;;;6.30;75.20;;;;;;5044680;27;89310;-43
2022/02/19 10:23:34;;;;;;;;;;;6.30;75.20;;;;;;5044780;28;87058;-43
2022/02/19 10:26:01;;;;;;;;;;;6.30;75.20;;;;;;5044368;27;88063;-44
2022/02/19 10:28:26;;;;;;;;;;;6.30;75.20;;;;;;5047504;27;89309;-43
2022/02/19 10:30:52;;;;;;;;;;;6.40;75.40;;;;;;5044934;27;87841;-44
2022/02/19 10:33:24;;;;;;;;;;;6.40;75.30;;;;;;5044302;27;89649;-43
2022/02/19 10:35:50;;;;;;;;;;;6.40;75.90;;;;;;5044794;28;87022;-43
2022/02/19 10:38:16;;;;;;;;;;;6.40;75.80;;;;;;5045007;27;88922;-43
2022/02/19 10:40:46;;;;;;;;;;;6.40;75.80;;;;;;5043646;27;89318;-40
2022/02/19 10:43:16;;;;;;;;;;;6.70;66.60;;;;;;5044945;27;86381;-43
2022/02/19 10:45:53;;;;;;;;;;;7.20;62.50;;;;;;5044429;27;88569;-42
2022/02/19 10:48:21;;;;;;;;;;;7.50;59.60;;;;;;5044118;27;89156;-42
2022/02/19 10:50:50;;;;;;;;;;;7.60;60.50;;;;;;5046599;27;88165;-41
2022/02/19 10:53:20;;;;;;;;;;;7.70;59.00;;;;;;5043965;27;89486;-41
2022/02/19 10:55:46;;;;;;;;;;;7.90;57.90;;;;;;5044383;27;87198;-39
2022/02/19 10:58:11;;;;;;;;;;;8.00;57.60;;;;;;5044436;27;87372;-41
2022/02/19 11:00:37;;;;;;;;;;;8.10;59.00;;;;;;5044403;27;87998;-43
2022/02/19 11:03:06;;;;;;;;;;;8.20;56.80;;;;;;5044076;27;87151;-43
2022/02/19 11:05:32;;;;;;;;;;;8.20;56.50;;;;;;5044293;27;87848;-44
2022/02/19 11:07:58;;;;;;;;;;;8.30;56.20;;;;;;5044462;27;87892;-42
2022/02/19 11:10:24;;;;;;;;;;;8.30;55.70;;;;;;5042971;27;87435;-41
2022/02/19 11:12:49;;;;;;;;;;;8.30;54.70;;;;;;5046335;27;88829;-40
2022/02/19 11:15:19;;;;;;;;;;;8.40;56.00;;;;;;5043588;27;88109;-39
2022/02/19 11:17:46;;;;;;;;;;;8.50;55.60;;;;;;5044084;27;90272;-42
2022/02/19 11:20:12;;;;;;;;;;;8.60;54.30;;;;;;5043684;27;89436;-40
2022/02/19 11:22:38;;;;;;;;;;;8.70;53.80;;;;;;5043943;27;86999;-39
2022/02/19 11:25:05;;;;;;;;;;;8.80;53.20;;;;;;5043937;27;88712;-37
2022/02/19 11:27:36;;;;;;;;;;;8.90;53.10;;;;;;5043339;27;89183;-44
2022/02/19 11:30:06;;;;;;;;;;;8.90;53.60;;;;;;5043951;27;87092;-40
2022/02/19 11:32:32;;;;;;;;;;;8.90;52.90;;;;;;5044389;28;88876;-42
2022/02/19 11:34:58;;;;;;;;;;;9.10;51.20;;;;;;5046578;28;88062;-40
2022/02/19 11:37:24;;;;;;;;;;;9.20;51.70;;;;;;5043719;27;89128;-44
2022/02/19 11:39:57;;;;;;;;;;;9.20;52.80;;;;;;5042671;27;90382;-45
2022/02/19 11:42:35;;;;;;;;;;;9.20;52.90;;;;;;5043692;27;86975;-44
2022/02/19 11:45:14;;;;;;;;;;;9.40;50.90;;;;;;5043640;27;89150;-44
2022/02/19 11:47:40;;;;;;;;;;;9.30;52.00;;;;;;5043490;27;88460;-45
2022/02/19 11:50:15;;;;;;;;;;;9.30;51.40;;;;;;5043550;27;87447;-46
2022/02/19 11:52:41;;;;;;;;;;;9.50;51.50;;;;;;5043574;28;89067;-44
2022/02/19 11:55:33;;;;;;;;;;;9.50;51.90;;;;;;5043220;27;89649;-38
2022/02/19 11:58:08;;;;;;;;;;;9.50;52.50;;;;;;5044398;28;86221;-43
2022/02/19 12:00:44;;;;;;;;;;;9.60;51.00;;;;;;5043437;27;89370;-40
2022/02/19 12:03:20;;;;;;;;;;;9.70;51.40;;;;;;5042937;27;87141;-43
2022/02/19 12:06:05;;;;;;;;;;;9.80;50.80;;;;;;5042708;27;88753;-42
2022/02/19 12:08:57;;;;;;;;;;;9.70;51.30;;;;;;5043174;27;89552;-49
2022/02/19 12:11:23;;;;;;;;;;;9.80;51.30;;;;;;5041275;27;86912;-45
2022/02/19 12:13:49;;;;;;;;;;;9.90;50.90;;;;;;5042152;28;90650;-44
2022/02/19 12:16:39;;;;;;;;;;;9.90;50.40;;;;;;5042857;28;89631;-45
2022/02/19 12:19:11;;;;;;;;;;;9.80;50.60;;;;;;5043348;27;86898;-45
2022/02/19 12:21:38;;;;;;;;;;;9.90;50.60;;;;;;5048059;27;87988;-45
2022/02/19 12:24:19;;;;;;;;;;;9.80;51.20;;;;;;5047325;27;86357;-45
2022/02/19 12:29:28;;;;;;;;;;;9.90;51.60;;;;;;5046794;28;88042;-45
2022/02/19 12:32:04;;;;;;;;;;;10.00;51.90;;;;;;5045990;27;88181;-45
2022/02/19 12:34:30;;;;;;;;;;;10.10;50.80;;;;;;5046488;27;89706;-48
2022/02/19 12:36:57;;;;;;;;;;;10.10;51.20;;;;;;5046203;28;89195;-45
2022/02/19 12:39:23;;;;;;;;;;;10.30;50.90;;;;;;5046441;28;87100;-42
2022/02/19 12:41:49;;;;;;;;;;;10.40;50.90;;;;;;5048946;27;89267;-43
2022/02/19 12:44:18;;;;;;;;;;;10.40;49.60;;;;;;5046570;27;87111;-44
2022/02/19 12:46:43;;;;;;;;;;;10.40;49.50;;;;;;5046419;27;89155;-46
2022/02/19 12:49:09;;;;;;;;;;;10.40;49.40;;;;;;5046616;27;88788;-43
2022/02/19 12:51:35;;;;;;;;;;;10.50;48.80;;;;;;5046261;27;87096;-46
2022/02/19 12:54:00;;;;;;;;;;;10.50;49.20;;;;;;5046445;27;89001;-43
2022/02/19 12:56:36;;;;;;;;;;;10.60;48.40;;;;;;5045109;27;89975;-42
2022/02/19 12:59:02;;;;;;;;;;;10.60;48.00;;;;;;5046371;28;86898;-40
2022/02/19 13:01:28;;;;;;;;;;;10.70;48.30;;;;;;5045440;27;88902;-41
2022/02/19 13:03:54;;;;;;;;;;;10.80;49.00;;;;;;5048810;27;89256;-44
2022/02/19 13:06:19;;;;;;;;;;;10.80;48.50;;;;;;5046068;27;88710;-42
2022/02/19 13:08:45;;;;;;;;;;;10.70;49.10;;;;;;5045789;27;89731;-43
2022/02/19 13:11:11;;;;;;;;;;;10.90;47.40;;;;;;5046148;27;87043;-42
2022/02/19 13:13:38;;;;;;;;;;;11.00;48.60;;;;;;5046673;27;87900;-41
2022/02/19 13:16:04;;;;;;;;;;;10.80;49.90;;;;;;5045475;27;88103;-41
2022/02/19 13:18:36;;;;;;;;;;;11.40;44.30;;;;;;5045826;28;87174;-37
2022/02/19 13:21:02;;;;;;;;;;;;;;;;;;5045333;27;88928;-41
2022/02/19 13:23:28;;;;;;;;;;;;;;;;;;5045607;27;89810;-40
2022/02/19 13:25:54;;;;;;;;;;;;;;;;;;5049344;27;87219;-41
2022/02/19 13:28:19;;;;;;;;;;;;;;;;;;5045711;27;89691;-42
2022/02/19 13:30:45;;;;;;;;;;;;;;;;;;5045898;27;87194;-41
2022/02/19 13:33:11;;;;;;;;;;;;;;;;;;5043598;27;88605;-39
2022/02/19 13:35:37;;;;;;;;;;;;;;;;;;5045442;27;89403;-41
2022/02/19 13:38:03;;;;;;;;;;;;;;;;;;5046334;27;86411;-41
2022/02/19 13:40:29;;;;;;;;;;;;;;;;;;5046100;27;86841;-45
2022/02/19 13:42:55;;;;;;;;;;;;;;;;;;5045249;27;88079;-38
2022/02/19 13:45:21;;;;;;;;;;;;;;;;;;5045440;27;88161;-41
2022/02/19 13:47:47;;;;;;;;;;;;;;;;;;5048095;27;89238;-43
2022/02/19 13:50:13;;;;;;;;;;;;;;;;;;5045823;27;87243;-43
2022/02/19 13:52:40;;;;;;;;;;;;;;;;;;5044361;28;90248;-44
2022/02/19 13:55:06;;;;;;;;;;;;;;;;;;5045032;27;89329;-41
2022/02/19 13:57:32;;;;;;;;;;;;;;;;;;5045758;27;86978;-45
2022/02/19 13:59:59;;;;;;;;;;;;;;;;;;5045688;27;88277;-43
2022/02/19 14:02:25;;;;;;;;;;;;;;;;;;5045316;27;88185;-43
2022/02/19 14:04:51;;;;;;;;;;;;;;;;;;5045291;27;87265;-45
2022/02/19 14:07:17;;;;;;;;;;;;;;;;;;5045287;27;88337;-44
2022/02/19 14:09:43;;;;;;;;;;;;;;;;;;5047375;27;90438;-42
2022/02/19 14:12:10;;;;;;;;;;;;;;;;;;5045356;27;89195;-41
2022/02/19 14:14:36;;;;;;;;;;;;;;;;;;5044929;27;88366;-45
2022/02/19 14:17:02;;;;;;;;;;;;;;;;;;5044895;27;87027;-44
2022/02/19 14:19:28;;;;;;;;;;;;;;;;;;5045190;27;88229;-46
2022/02/19 14:21:53;;;;;;;;;;;;;;;;;;5044930;27;89149;-40
2022/02/19 14:24:19;;;;;;;;;;;;;;;;;;5045074;27;87134;-39
2022/02/19 14:26:45;;;;;;;;;;;;;;;;;;5045621;27;88763;-38
2022/02/19 14:29:12;;;;;;;;;;;;;;;;;;5044792;27;89726;-38
2022/02/19 14:31:38;;;;;;;;;;;;;;;;;;5047758;27;86932;-38
2022/02/19 14:34:04;;;;;;;;;;;;;;;;;;5044034;27;90417;-38
2022/02/19 14:36:30;;;;;;;;;;;;;;;;;;5044843;27;87034;-42
2022/02/19 14:38:56;;;;;;;;;;;;;;;;;;5044830;27;88447;-42
2022/02/19 14:41:22;;;;;;;;;;;;;;;;;;5044329;27;89654;-42
2022/02/19 14:43:48;;;;;;;;;;;;;;;;;;5044557;27;87092;-41
2022/02/19 14:46:16;;;;;;;;;;;;;;;;;;5044605;27;88484;-42
2022/02/19 14:48:42;;;;;;;;;;;;;;;;;;5044470;27;88445;-42